Time;durP1;ratioP1;P1;durP2;ratioP2;P2;SDS_P1;SDS_P2;PMS_P1;PMS_P2;Temp;Humidity;BMP_temperature;BMP_pressure;BME280_temperature;BME280_humidity;BME280_pressure;Samples;Min_cycle;Max_cycle;Signal;HPM_P1;HPM_P2
2021/03/31 00:03:59;;;;;;;34.30;18.35;;;;;;;12.01;67.18;101799.81;4974927;58;1142887;-79
2021/03/31 00:09:05;;;;;;;46.08;23.57;;;;;;;11.87;66.81;101797.19;4974671;58;1142708;-78
2021/03/31 00:14:16;;;;;;;36.20;19.63;;;;;;;11.79;67.24;101792.81;4974933;58;1142714;-78
2021/03/31 00:19:22;;;;;;;34.80;19.83;;;;;;;11.78;67.02;101797.73;4975088;58;1142942;-78
2021/03/31 00:24:28;;;;;;;35.67;18.53;;;;;;;11.69;66.98;101796.49;5000662;58;1142596;-79
2021/03/31 00:29:34;;;;;;;40.83;20.00;;;;;;;11.68;67.12;101800.56;5008815;58;1142662;-78
2021/03/31 00:34:39;;;;;;;35.67;20.10;;;;;;;11.63;67.19;101796.39;5008816;58;1143000;-79
2021/03/31 00:39:46;;;;;;;35.28;19.32;;;;;;;11.61;67.15;101793.45;5021329;58;1144312;-79
2021/03/31 00:44:51;;;;;;;29.80;15.03;;;;;;;11.52;67.30;101791.38;4994553;58;1142965;-78
2021/03/31 00:49:57;;;;;;;34.35;15.65;;;;;;;11.48;67.30;101786.73;5008841;58;1142934;-78
2021/03/31 00:55:03;;;;;;;24.98;12.43;;;;;;;11.36;67.26;101786.16;5009035;58;1143053;-78
2021/03/31 01:00:11;;;;;;;24.07;13.40;;;;;;;11.35;67.35;101783.13;5008684;58;1142493;-78
2021/03/31 01:05:24;;;;;;;27.33;14.30;;;;;;;11.38;67.46;101781.63;5008969;58;1142470;-78
2021/03/31 01:10:34;;;;;;;;;;;;;;;11.36;67.27;101772.06;5011917;58;1142947;-78
2021/03/31 01:16:16;;;;;;;27.43;14.27;;;;;;;11.12;66.59;101761.17;5022807;58;975737;-78
2021/03/31 01:21:55;;;;;;;29.57;14.93;;;;;;;10.84;67.14;101767.25;4770791;60;1140486;-79
2021/03/31 01:27:05;;;;;;;27.55;15.43;;;;;;;10.77;67.69;101773.83;4728283;61;1142696;-78
2021/03/31 01:32:27;;;;;;;24.67;15.07;;;;;;;10.68;67.71;101771.73;4725059;62;1142806;-78
2021/03/31 01:37:56;;;;;;;29.33;14.07;;;;;;;10.60;67.68;101769.52;4725579;61;1142684;-78
2021/03/31 01:43:12;;;;;;;33.30;13.98;;;;;;;10.53;67.53;101766.86;4725280;62;1143063;-79
2021/03/31 01:48:21;;;;;;;25.43;13.77;;;;;;;10.53;67.90;101767.72;4725802;61;1142763;-79
2021/03/31 01:53:28;;;;;;;27.67;15.70;;;;;;;10.57;68.25;101774.52;4697144;60;1142510;-78
2021/03/31 01:58:35;;;;;;;27.30;14.07;;;;;;;10.59;68.33;101770.45;4942844;58;1142617;-78
2021/03/31 02:03:41;;;;;;;26.47;14.00;;;;;;;10.56;68.25;101767.98;4975345;58;1142595;-78
2021/03/31 02:08:49;;;;;;;29.13;14.43;;;;;;;10.45;67.68;101771.72;4976246;58;1142851;-79
2021/03/31 02:13:59;;;;;;;25.30;13.15;;;;;;;10.28;67.77;101767.39;4961319;58;1142949;-78
2021/03/31 02:19:05;;;;;;;28.35;13.58;;;;;;;10.25;67.91;101758.77;4975416;58;1142613;-78
2021/03/31 02:24:17;;;;;;;31.70;13.90;;;;;;;10.25;67.94;101760.94;4978047;58;1142500;-79
2021/03/31 02:29:23;;;;;;;31.87;15.53;;;;;;;10.27;68.03;101768.79;5009132;58;1142455;-79
2021/03/31 02:34:30;;;;;;;38.80;18.20;;;;;;;10.27;68.33;101763.50;5009315;58;1143204;-78
2021/03/31 02:39:42;;;;;;;36.37;15.90;;;;;;;10.25;68.19;101764.91;5009023;58;1142671;-79
2021/03/31 02:44:51;;;;;;;38.10;16.20;;;;;;;10.12;67.87;101772.65;5011128;58;1143109;-79
2021/03/31 02:50:03;;;;;;;39.55;19.98;;;;;;;10.03;68.06;101765.24;5023344;57;1142968;-79
2021/03/31 02:55:11;;;;;;;34.50;16.43;;;;;;;9.96;68.29;101766.50;5009071;58;1143257;-78
2021/03/31 03:00:18;;;;;;;39.17;17.77;;;;;;;9.95;68.25;101759.98;5009251;57;1140386;-78
2021/03/31 03:05:24;;;;;;;36.87;18.67;;;;;;;9.94;68.18;101751.20;5009448;58;1140401;-78
2021/03/31 03:10:30;;;;;;;41.30;19.13;;;;;;;9.96;68.31;101755.08;5009267;58;1140370;-78
2021/03/31 03:15:36;;;;;;;50.03;18.90;;;;;;;9.84;68.14;101757.47;5009167;58;1140467;-79
2021/03/31 03:20:42;;;;;;;45.83;20.57;;;;;;;9.69;67.79;101752.16;5009199;58;1140436;-78
2021/03/31 03:25:50;;;;;;;58.38;20.80;;;;;;;9.55;68.29;101746.31;5021646;58;1140883;-79
2021/03/31 03:30:57;;;;;;;52.95;19.48;;;;;;;9.47;68.22;101744.56;4961515;58;1140972;-78
2021/03/31 03:36:12;;;;;;;54.33;16.97;;;;;;;9.37;68.58;101733.62;4975386;58;1141088;-78
2021/03/31 03:41:18;;;;;;;54.30;16.53;;;;;;;9.39;68.69;101730.43;4975133;58;1140644;-78
2021/03/31 03:46:23;;;;;;;35.87;17.43;;;;;;;9.43;68.63;101728.02;4975329;58;1140729;-78
2021/03/31 03:51:32;;;;;;;49.98;17.95;;;;;;;9.42;68.50;101722.35;4975161;58;1140680;-78
2021/03/31 03:56:38;;;;;;;41.13;18.30;;;;;;;9.27;67.92;101726.27;4975106;58;1140649;-78
2021/03/31 04:01:44;;;;;;;50.93;20.70;;;;;;;9.16;68.52;101717.61;4975068;58;1140723;-78
2021/03/31 04:06:50;;;;;;;51.42;19.45;;;;;;;9.12;68.92;101721.34;4977026;58;1144997;-77
2021/03/31 04:11:56;;;;;;;51.05;20.45;;;;;;;9.07;68.54;101719.39;4960955;58;1141001;-76
2021/03/31 04:17:04;;;;;;;55.17;18.42;;;;;;;8.98;68.47;101721.20;4975223;58;1139000;-75
2021/03/31 04:22:11;;;;;;;47.87;17.40;;;;;;;8.93;68.31;101721.89;4984984;58;1140891;-77
2021/03/31 04:27:20;;;;;;;60.70;21.00;;;;;;;8.94;68.70;101723.61;4991218;57;1140965;-77
2021/03/31 04:32:27;;;;;;;64.03;18.77;;;;;;;8.96;68.89;101718.64;5008366;58;1140896;-77
2021/03/31 04:37:32;;;;;;;76.37;34.20;;;;;;;8.96;68.84;101721.28;5008568;58;1140956;-77
2021/03/31 04:42:38;;;;;;;73.23;29.10;;;;;;;8.91;68.79;101720.66;5009053;58;1140870;-77
2021/03/31 04:47:44;;;;;;;68.20;30.43;;;;;;;8.83;68.69;101709.66;5008217;58;1140544;-77
2021/03/31 04:52:50;;;;;;;73.75;28.30;;;;;;;8.78;68.79;101707.25;4998767;58;1138552;-78
2021/03/31 04:57:56;;;;;;;84.10;37.78;;;;;;;8.72;68.81;101711.50;4994347;58;1138394;-78
2021/03/31 05:03:01;;;;;;;79.00;33.63;;;;;;;8.69;68.74;101713.47;5008675;58;1140870;-77
2021/03/31 05:08:07;;;;;;;76.60;28.55;;;;;;;8.65;68.85;101716.72;5009091;58;1140907;-76
2021/03/31 05:13:14;;;;;;;66.93;24.83;;;;;;;8.67;69.36;101716.17;5008964;58;1140900;-77
2021/03/31 05:18:19;;;;;;;47.33;18.90;;;;;;;8.72;69.40;101718.56;5008788;58;1140868;-77
2021/03/31 05:23:25;;;;;;;69.13;25.33;;;;;;;8.68;69.78;101719.67;4999669;58;1140655;-76
2021/03/31 05:28:30;;;;;;;78.00;27.97;;;;;;;8.71;70.04;101716.39;4966400;58;1140546;-76
2021/03/31 05:33:36;;;;;;;82.85;33.58;;;;;;;8.72;70.23;101713.28;4980480;58;1140804;-76
2021/03/31 05:38:41;;;;;;;106.77;41.73;;;;;;;8.73;70.02;101722.91;5004253;58;1140582;-76
2021/03/31 05:43:47;;;;;;;156.73;64.43;;;;;;;8.78;70.61;101719.11;4983278;58;1142651;-76
2021/03/31 05:48:53;;;;;;;196.40;86.90;;;;;;;8.93;71.23;101725.86;5000744;58;1142970;-76
2021/03/31 05:53:58;;;;;;;141.18;59.65;;;;;;;9.06;72.00;101719.00;5003728;58;1142690;-75
2021/03/31 05:59:05;;;;;;;95.97;43.98;;;;;;;9.24;72.63;101718.05;4973143;58;1142751;-76
2021/03/31 06:04:11;;;;;;;77.57;34.77;;;;;;;9.48;72.85;101712.77;4971697;58;1140846;-75
2021/03/31 06:09:17;;;;;;;63.93;39.60;;;;;;;9.76;73.31;101705.53;4984910;58;1140385;-76
2021/03/31 06:14:35;;;;;;;57.30;40.60;;;;;;;10.05;73.71;101701.72;4980055;58;1140478;-76
2021/03/31 06:19:45;;;;;;;43.93;25.17;;;;;;;10.28;73.69;101699.11;4938761;58;1142814;-75
2021/03/31 06:25:25;;;;;;;26.27;16.02;;;;;;;10.43;74.32;101689.81;5008377;58;1142720;-76
2021/03/31 06:30:30;;;;;;;35.67;16.83;;;;;;;10.59;74.11;101688.45;4964778;58;1142780;-75
2021/03/31 06:35:36;;;;;;;28.90;16.77;;;;;;;10.71;74.51;101682.89;4968412;58;1142733;-76
2021/03/31 06:40:45;;;;;;;32.17;17.07;;;;;;;10.93;75.11;101690.80;5003354;58;1142536;-75
2021/03/31 06:45:53;;;;;;;39.13;23.93;;;;;;;11.04;75.06;101689.28;4991804;58;1142485;-75
2021/03/31 06:50:56;;;;;;;31.70;16.53;;;;;;;11.10;75.46;101680.98;5003720;58;1142802;-77
2021/03/31 06:56:04;;;;;;;26.70;15.38;;;;;;;11.19;75.63;101684.37;4992074;58;1142754;-77
2021/03/31 07:01:34;;;;;;;30.77;17.82;;;;;;;11.28;75.95;101687.32;5002141;58;1143057;-77
2021/03/31 07:06:39;;;;;;;28.33;17.77;;;;;;;11.42;76.50;101682.48;5016050;58;1142558;-76
2021/03/31 07:11:45;;;;;;;32.20;17.83;;;;;;;11.59;76.53;101678.31;5015953;58;1142495;-77
2021/03/31 07:16:51;;;;;;;30.70;17.10;;;;;;;11.81;76.49;101684.42;5015889;58;1142418;-77
2021/03/31 07:21:57;;;;;;;32.17;16.20;;;;;;;12.03;77.06;101684.37;5016232;58;1142711;-76
2021/03/31 07:27:04;;;;;;;28.23;16.55;;;;;;;12.28;77.02;101677.83;5016019;58;1142595;-75
2021/03/31 07:32:10;;;;;;;30.62;15.85;;;;;;;12.58;76.66;101684.22;5015692;58;1142643;-75
2021/03/31 07:37:16;;;;;;;29.30;15.60;;;;;;;13.08;76.89;101673.27;5015074;58;1142870;-75
2021/03/31 07:42:23;;;;;;;31.97;15.47;;;;;;;13.08;76.89;101673.27;5015486;58;1142750;-75
2021/03/31 07:47:30;;;;;;;38.33;21.27;;;;;;;13.35;76.78;101685.49;5015202;58;1142583;-75
2021/03/31 07:53:01;;;;;;;36.57;17.13;;;;;;;13.61;76.38;101684.11;5015500;58;1143073;-75
2021/03/31 07:58:20;;;;;;;25.35;12.93;;;;;;;13.83;76.09;101680.28;4923886;58;1142727;-76
2021/03/31 08:03:31;;;;;;;24.27;13.77;;;;;;;14.16;75.62;101672.12;4974859;58;1142517;-76
2021/03/31 08:08:50;;;;;;;25.27;13.23;;;;;;;14.49;75.13;101668.78;5014769;58;1142638;-74
2021/03/31 08:13:56;;;;;;;29.10;14.03;;;;;;;14.75;73.71;101674.29;4932470;59;1142706;-74
2021/03/31 08:19:05;;;;;;;22.33;12.30;;;;;;;15.02;73.14;101672.63;4853981;60;1142631;-74
2021/03/31 08:24:12;;;;;;;15.15;10.45;;;;;;;15.24;72.93;101673.14;4850863;60;1142942;-74
2021/03/31 08:29:24;;;;;;;21.20;11.00;;;;;;;15.53;72.21;101669.49;4854123;60;1142741;-74
2021/03/31 08:34:32;;;;;;;22.60;10.58;;;;;;;15.81;72.20;101665.84;4928315;59;1143911;-74
2021/03/31 08:39:38;;;;;;;18.60;9.57;;;;;;;16.10;71.10;101662.11;4900921;59;1142709;-74
2021/03/31 08:44:50;;;;;;;21.27;12.37;;;;;;;16.43;71.33;101658.94;4906433;58;1140998;-76
2021/03/31 08:49:54;;;;;;;19.50;11.17;;;;;;;16.72;70.33;101653.83;4923266;57;1142869;-73
2021/03/31 08:55:00;;;;;;;25.06;12.82;;;;;;;16.92;68.90;101654.31;4921929;57;1142664;-75
2021/03/31 09:00:09;;;;;;;25.08;11.43;;;;;;;17.08;68.46;101643.14;4923671;57;1142694;-74
2021/03/31 09:05:15;;;;;;;22.94;12.58;;;;;;;17.20;67.86;101648.26;4923319;58;1142653;-76
2021/03/31 09:10:20;;;;;;;25.50;10.80;;;;;;;17.39;66.78;101642.14;4923245;57;1142981;-76
2021/03/31 09:15:26;;;;;;;11.87;9.10;;;;;;;17.57;67.03;101639.64;4923246;57;1142519;-76
2021/03/31 09:20:32;;;;;;;17.80;10.30;;;;;;;17.82;65.97;101627.14;4923067;58;1140556;-77
2021/03/31 09:25:37;;;;;;;16.43;9.17;;;;;;;17.95;64.50;101620.66;4915417;58;1142687;-75
2021/03/31 09:30:45;;;;;;;18.14;9.00;;;;;;;18.06;64.49;101616.50;4923358;58;1140658;-73
2021/03/31 09:35:50;;;;;;;14.67;9.00;;;;;;;18.21;63.52;101611.92;4924663;59;1140369;-74
2021/03/31 09:41:03;;;;;;;12.40;6.20;;;;;;;18.30;62.19;101602.20;4936691;58;1140727;-76
2021/03/31 09:46:08;;;;;;;15.48;7.45;;;;;;;18.48;57.94;101600.50;4931532;58;1141136;-74
2021/03/31 09:51:15;;;;;;;9.93;5.40;;;;;;;18.65;56.56;101598.91;4973408;58;1140512;-74
2021/03/31 09:56:21;;;;;;;9.80;4.90;;;;;;;18.84;56.88;101591.31;4979814;58;1138476;-74
2021/03/31 10:01:27;;;;;;;12.20;6.50;;;;;;;18.92;53.75;101591.44;4950136;58;1138550;-74
2021/03/31 10:06:33;;;;;;;11.16;6.00;;;;;;;19.05;55.80;101581.72;4938160;58;1140560;-71
2021/03/31 10:11:38;;;;;;;12.18;6.40;;;;;;;19.22;51.57;101582.27;4926554;58;1140814;-75
2021/03/31 10:16:44;;;;;;;11.28;5.80;;;;;;;19.32;55.26;101570.98;4893264;59;1140818;-75
2021/03/31 10:21:49;;;;;;;8.18;6.10;;;;;;;19.52;52.18;101566.39;4915406;58;1140556;-75
2021/03/31 10:26:55;;;;;;;10.50;4.62;;;;;;;19.69;55.22;101564.22;5004814;58;1138598;-74
2021/03/31 10:32:03;;;;;;;11.50;8.13;;;;;;;19.89;50.46;101552.31;4961812;57;1141200;-77
2021/03/31 10:37:20;;;;;;;11.75;5.10;;;;;;;19.99;51.88;101547.72;4949238;58;1140798;-75
2021/03/31 10:48:11;;;;;;;11.20;5.33;;;;;;;20.42;49.42;101528.58;4942379;58;1138606;-78
2021/03/31 10:53:13;;;;;;;14.30;6.10;;;;;;;20.59;46.41;101525.49;4945762;58;1140524;-76
2021/03/31 10:58:18;;;;;;;11.60;4.50;;;;;;;20.67;47.87;101514.77;4875544;59;1140445;-76
2021/03/31 11:03:26;;;;;;;9.13;4.83;;;;;;;20.86;47.69;101505.62;4872647;59;1140442;-78
2021/03/31 11:08:32;;;;;;;13.93;5.15;;;;;;;21.08;48.18;101495.63;4908105;58;1138270;-76
2021/03/31 11:13:38;;;;;;;10.82;4.65;;;;;;;21.33;48.43;101493.86;4936234;58;1140365;-78
2021/03/31 11:19:00;;;;;;;6.37;4.25;;;;;;;21.45;42.89;101497.07;4935752;58;1140319;-73
2021/03/31 11:29:23;;;;;;;13.78;8.55;;;;;;;21.53;44.23;101483.64;4935522;58;1140504;-77
2021/03/31 11:34:29;;;;;;;12.05;5.15;;;;;;;21.65;41.46;101472.88;4935191;58;1140374;-78
2021/03/31 11:39:34;;;;;;;12.00;4.92;;;;;;;21.71;40.16;101474.88;4934227;58;1140529;-76
2021/03/31 11:44:40;;;;;;;11.90;5.25;;;;;;;21.67;40.00;101469.52;4924227;57;1140415;-75
2021/03/31 11:49:45;;;;;;;8.13;3.83;;;;;;;21.67;39.02;101462.78;4920458;57;1140484;-76
2021/03/31 11:54:51;;;;;;;8.48;4.35;;;;;;;21.78;39.54;101450.82;4924717;58;1138458;-77
2021/03/31 11:59:56;;;;;;;11.45;4.15;;;;;;;21.92;38.62;101444.75;4924820;57;1138447;-74
2021/03/31 12:05:02;;;;;;;35.35;22.00;;;;;;;22.03;39.98;101426.40;4924390;58;1140552;-73
2021/03/31 12:10:10;;;;;;;29.00;15.45;;;;;;;22.17;38.54;101432.94;4924073;58;1142738;-77
2021/03/31 12:15:16;;;;;;;23.77;12.00;;;;;;;22.25;36.93;101428.05;4924272;57;1142789;-77
2021/03/31 12:20:21;;;;;;;11.57;4.50;;;;;;;22.39;36.99;101423.28;4924313;58;1143037;-73
2021/03/31 12:25:27;;;;;;;8.40;3.98;;;;;;;22.57;39.04;101413.61;4924687;57;1140550;-77
2021/03/31 12:30:32;;;;;;;14.63;5.92;;;;;;;22.60;35.05;101407.37;4924431;58;1138717;-75
2021/03/31 12:35:38;;;;;;;14.47;7.75;;;;;;;22.62;38.29;101397.22;4924396;58;1140965;-73
2021/03/31 12:40:43;;;;;;;8.85;5.33;;;;;;;22.76;38.85;101399.20;4925369;57;1140919;-74
2021/03/31 12:45:49;;;;;;;11.50;6.83;;;;;;;22.78;38.55;101379.63;4948097;58;1138793;-76
2021/03/31 12:51:03;;;;;;;18.32;8.30;;;;;;;22.92;37.88;101374.48;4946095;57;1140600;-77
2021/03/31 12:56:08;;;;;;;76.73;52.33;;;;;;;23.09;36.71;101367.45;4913894;59;1140623;-77
2021/03/31 13:01:19;;;;;;;16.27;7.77;;;;;;;23.10;35.77;101367.79;4965942;58;1142638;-78
2021/03/31 13:06:30;;;;;;;15.68;9.25;;;;;;;23.13;35.04;101357.15;4981321;58;1140453;-76
2021/03/31 13:11:29;;;;;;;7.17;4.30;;;;;;;23.17;36.10;101347.68;4957466;58;1140440;-80
2021/03/31 13:22:19;;;;;;;12.78;6.97;;;;;;;23.41;35.34;101331.26;4962406;58;1142441;-77
2021/03/31 13:32:41;;;;;;;16.23;10.15;;;;;;;23.27;34.19;101317.22;4860939;58;1142537;-77
2021/03/31 13:37:59;;;;;;;32.13;19.85;;;;;;;23.38;35.52;101310.02;4971641;57;1142587;-75
2021/03/31 13:42:51;;;;;;;19.70;11.75;;;;;;;23.52;35.70;101303.54;4943256;57;1142464;-78
2021/03/31 13:48:00;;;;;;;12.65;7.65;;;;;;;23.54;35.01;101297.41;4889512;58;1142530;-79
2021/03/31 13:53:05;;;;;;;22.80;13.00;;;;;;;23.47;34.49;101293.25;4999434;58;1140642;-77
2021/03/31 13:58:11;;;;;;;94.20;57.85;;;;;;;23.45;33.97;101289.38;4936093;59;1142657;-76
2021/03/31 14:03:16;;;;;;;26.25;13.60;;;;;;;23.37;33.74;101285.94;4947040;58;1142816;-73
2021/03/31 14:08:22;;;;;;;18.30;8.40;;;;;;;23.40;32.38;101277.44;4856896;59;1142785;-75
2021/03/31 14:13:28;;;;;;;23.55;10.15;;;;;;;23.45;33.55;101272.34;4864064;59;1140596;-75
2021/03/31 14:18:34;;;;;;;22.95;11.30;;;;;;;23.47;33.60;101266.25;4966038;58;1142606;-75
2021/03/31 14:23:40;;;;;;;19.05;8.03;;;;;;;23.42;35.27;101260.05;4938212;58;1142532;-75
2021/03/31 14:28:46;;;;;;;20.37;8.83;;;;;;;23.49;32.49;101247.50;4935700;58;1140545;-75
2021/03/31 14:33:52;;;;;;;13.05;4.83;;;;;;;23.40;30.93;101248.59;4935653;58;1140871;-73
2021/03/31 14:38:58;;;;;;;10.98;6.00;;;;;;;23.37;31.17;101243.58;4907253;58;1140405;-73
2021/03/31 14:44:04;;;;;;;14.78;6.33;;;;;;;23.44;32.85;101226.11;4972002;58;1140570;-73
2021/03/31 14:49:10;;;;;;;9.80;6.33;;;;;;;23.55;33.49;101222.13;4919741;58;1140400;-73
2021/03/31 14:59:48;;;;;;;7.78;4.25;;;;;;;23.57;32.61;101205.23;4905598;58;1138573;-74
2021/03/31 15:04:49;;;;;;;5.25;4.00;;;;;;;23.55;32.12;101208.12;4943610;58;1138419;-73
2021/03/31 15:09:55;;;;;;;15.45;8.08;;;;;;;23.59;33.40;101193.74;4942791;58;1138302;-73
2021/03/31 15:15:00;;;;;;;23.77;5.97;;;;;;;23.67;34.12;101189.09;4925320;58;1140412;-76
2021/03/31 15:25:13;;;;;;;10.18;4.75;;;;;;;23.59;33.54;101178.38;4920821;58;1139089;-73
2021/03/31 15:30:19;;;;;;;14.23;5.35;;;;;;;23.52;34.07;101177.47;4899173;59;1140591;-77
2021/03/31 15:35:25;;;;;;;19.90;7.00;;;;;;;23.39;34.92;101171.83;4893343;59;1140709;-77
2021/03/31 15:40:30;;;;;;;17.85;8.18;;;;;;;23.43;35.94;101169.09;4898592;59;1140515;-78
2021/03/31 15:45:38;;;;;;;14.47;7.03;;;;;;;23.49;35.90;101170.55;4895793;59;1140906;-80
2021/03/31 15:50:43;;;;;;;10.18;4.95;;;;;;;23.44;36.05;101155.41;4926530;58;1140605;-81
2021/03/31 15:55:49;;;;;;;13.45;6.80;;;;;;;23.44;36.22;101148.66;4937873;58;1140659;-74
2021/03/31 16:00:54;;;;;;;11.65;7.28;;;;;;;23.39;36.73;101141.63;4935434;58;1140564;-75
2021/03/31 16:06:00;;;;;;;16.25;7.55;;;;;;;23.32;36.80;101145.27;4936635;58;1140586;-77
2021/03/31 16:11:06;;;;;;;12.33;5.83;;;;;;;23.25;37.52;101137.58;4936469;58;1141018;-71
2021/03/31 16:16:11;;;;;;;16.48;5.62;;;;;;;23.21;37.61;101130.91;4936356;58;1140960;-73
2021/03/31 16:21:17;;;;;;;11.93;7.33;;;;;;;23.24;37.66;101123.76;4936141;58;1140927;-72
2021/03/31 16:26:22;;;;;;;12.00;6.08;;;;;;;23.28;37.71;101121.86;4946378;58;1140383;-78
2021/03/31 16:31:31;;;;;;;285.00;254.30;;;;;;;23.24;36.42;101117.01;4977114;58;1140491;-78
2021/03/31 16:36:41;;;;;;;113.15;95.35;;;;;;;23.15;36.80;101117.12;4873599;59;1146764;-74
2021/03/31 16:41:47;;;;;;;34.80;20.02;;;;;;;22.96;37.23;101112.78;4974657;58;1144616;-76
2021/03/31 16:46:53;;;;;;;14.58;7.15;;;;;;;22.87;37.68;101108.00;4976836;58;1142909;-76
2021/03/31 16:51:58;;;;;;;20.60;5.85;;;;;;;22.79;37.50;101094.07;4936467;58;1140574;-79
2021/03/31 16:57:04;;;;;;;16.95;4.95;;;;;;;22.69;37.60;101094.83;4955700;58;1140442;-77
2021/03/31 17:02:10;;;;;;;15.68;4.92;;;;;;;22.53;37.75;101094.14;4936621;58;1140909;-75
2021/03/31 17:07:15;;;;;;;10.88;6.12;;;;;;;22.37;38.11;101089.73;4936965;58;1140860;-81
2021/03/31 17:12:21;;;;;;;52.53;32.28;;;;;;;22.22;38.34;101082.95;4936686;57;1140355;-75
2021/03/31 17:17:27;;;;;;;32.40;17.80;;;;;;;22.06;38.63;101080.39;4854977;59;1143055;-74
2021/03/31 17:22:31;;;;;;;73.25;30.43;;;;;;;;;;4936963;58;1142476;-78
2021/03/31 17:27:37;;;;;;;39.42;18.17;;;;;;;22.03;39.76;101075.36;5007392;58;821408;-78
2021/03/31 17:32:49;;;;;;;155.05;66.65;;;;;;;21.98;40.47;101081.27;4951294;58;1140569;-77
2021/03/31 17:37:55;;;;;;;143.45;50.48;;;;;;;21.82;40.89;101076.00;4854233;59;1145042;-75
2021/03/31 17:43:00;;;;;;;159.20;44.95;;;;;;;21.64;41.21;101069.55;4855285;59;1145193;-77
2021/03/31 17:48:06;;;;;;;109.60;45.30;;;;;;;21.39;41.52;101074.70;4900573;59;1149455;-80
2021/03/31 17:53:16;;;;;;;127.42;42.48;;;;;;;21.10;41.95;101072.62;4839014;59;1144786;-76
2021/03/31 17:58:19;;;;;;;135.78;72.58;;;;;;;20.79;42.38;101064.48;4903894;59;1145013;-79
2021/03/31 18:03:25;;;;;;;92.88;30.45;;;;;;;20.46;42.66;101062.38;4915986;59;1144794;-78
2021/03/31 18:08:30;;;;;;;78.05;20.10;;;;;;;20.33;43.15;101062.00;4839425;59;1143035;-75
2021/03/31 18:13:36;;;;;;;85.53;29.35;;;;;;;20.28;43.38;101057.66;4839247;59;1143006;-77
2021/03/31 18:18:42;;;;;;;150.93;70.67;;;;;;;20.20;43.41;101063.86;4907958;59;1142823;-77
2021/03/31 18:23:48;;;;;;;151.05;58.40;;;;;;;19.89;43.60;101060.15;4947108;58;1144571;-76
2021/03/31 18:28:53;;;;;;;129.27;45.83;;;;;;;19.66;44.15;101057.28;4989458;58;1145090;-78
2021/03/31 18:33:59;;;;;;;120.62;37.08;;;;;;;19.44;44.76;101064.05;5000508;58;1144880;-76
2021/03/31 18:39:05;;;;;;;95.75;31.20;;;;;;;19.38;45.16;101061.20;4854480;59;1144781;-77
2021/03/31 18:44:11;;;;;;;116.40;31.56;;;;;;;19.24;45.27;101066.69;4936378;58;1142595;-78
2021/03/31 18:49:17;;;;;;;155.35;49.80;;;;;;;19.12;45.65;101063.92;4867257;59;1144997;-79
2021/03/31 18:54:23;;;;;;;129.82;45.73;;;;;;;19.02;46.00;101060.54;5017207;58;1145098;-78
2021/03/31 18:59:28;;;;;;;143.20;47.13;;;;;;;18.92;46.28;101068.72;5017121;58;1145015;-75
2021/03/31 19:04:34;;;;;;;152.53;52.98;;;;;;;18.82;46.51;101052.73;4948863;58;1145551;-74
2021/03/31 19:15:03;;;;;;;114.72;35.30;;;;;;;18.41;46.82;101048.94;5010108;58;1145058;-75
2021/03/31 19:20:09;;;;;;;107.43;36.25;;;;;;;18.29;47.38;101043.50;4854638;59;1145081;-75
2021/03/31 19:25:15;;;;;;;111.50;37.58;;;;;;;18.24;47.77;101040.44;4936051;58;1144931;-75
2021/03/31 19:30:21;;;;;;;78.40;27.73;;;;;;;18.16;47.82;101029.19;4854291;59;1145060;-77
2021/03/31 19:35:28;;;;;;;148.65;54.83;;;;;;;18.07;47.76;101023.41;4936235;58;1142726;-74
2021/03/31 19:40:34;;;;;;;100.70;38.98;;;;;;;17.96;47.94;101021.47;4854007;59;1144839;-76
2021/03/31 19:45:42;;;;;;;165.90;65.50;;;;;;;17.83;48.21;101015.18;4993258;58;1144864;-76
2021/03/31 19:50:52;;;;;;;290.05;113.45;;;;;;;17.72;48.34;101012.75;4934624;59;1145070;-73
2021/03/31 19:55:57;;;;;;;231.60;90.10;;;;;;;17.53;48.48;101005.67;4828017;59;1146927;-73
2021/03/31 20:01:03;;;;;;;250.03;105.13;;;;;;;17.34;48.76;101007.97;4863548;58;1144811;-73
2021/03/31 20:06:08;;;;;;;294.53;124.70;;;;;;;17.10;48.76;101007.22;4843611;60;1146886;-75
2021/03/31 20:11:14;;;;;;;286.73;129.40;;;;;;;16.91;49.29;100996.63;4879678;59;1147177;-76
2021/03/31 20:16:20;;;;;;;278.37;128.78;;;;;;;16.83;49.70;100997.84;4864728;59;1147409;-75
2021/03/31 20:21:27;;;;;;;318.63;134.70;;;;;;;16.73;49.85;101001.90;4778393;61;1146898;-75
2021/03/31 20:26:33;;;;;;;321.50;133.63;;;;;;;16.62;50.04;100993.20;4858030;60;1146860;-74
2021/03/31 20:31:38;;;;;;;261.93;114.63;;;;;;;16.50;50.24;100989.36;4846945;60;1146659;-73
2021/03/31 20:36:45;;;;;;;208.10;95.07;;;;;;;16.39;50.73;100983.36;4859134;59;1146813;-73
2021/03/31 20:41:50;;;;;;;217.33;97.57;;;;;;;16.27;50.84;100989.37;4847102;60;1144983;-75
2021/03/31 20:46:56;;;;;;;179.87;85.03;;;;;;;16.14;51.52;100992.35;4859190;59;1144588;-72
2021/03/31 20:52:02;;;;;;;174.90;75.70;;;;;;;16.11;51.65;100988.63;4847134;60;1144747;-73
2021/03/31 20:57:10;;;;;;;150.07;65.87;;;;;;;15.94;51.52;100982.68;4915165;58;1144717;-75
2021/03/31 21:02:16;;;;;;;151.82;65.25;;;;;;;15.86;51.94;100981.72;4843774;60;1144641;-75
2021/03/31 21:07:21;;;;;;;169.55;71.33;;;;;;;15.77;51.90;100979.39;4935481;59;1145088;-76
2021/03/31 21:12:27;;;;;;;157.85;65.28;;;;;;;15.67;51.99;100976.73;4935704;57;1145200;-73
2021/03/31 21:17:33;;;;;;;149.57;62.60;;;;;;;15.55;52.10;100970.33;4935357;58;1144623;-74
2021/03/31 21:22:38;;;;;;;154.63;64.50;;;;;;;15.40;52.05;100973.89;4935228;58;1144787;-73
2021/03/31 21:27:44;;;;;;;160.17;67.37;;;;;;;15.20;52.36;100976.17;4935305;58;1144815;-73
2021/03/31 21:32:49;;;;;;;172.37;74.33;;;;;;;15.11;53.18;100967.19;4935383;58;1144692;-73
2021/03/31 21:37:55;;;;;;;172.37;74.93;;;;;;;15.10;53.25;100962.84;4935274;58;1144909;-73
2021/03/31 21:43:00;;;;;;;192.33;77.23;;;;;;;15.09;53.37;100960.67;4935349;58;1144712;-75
2021/03/31 21:48:07;;;;;;;179.93;70.83;;;;;;;15.02;53.35;100957.34;4935375;58;1144971;-76
2021/03/31 21:53:13;;;;;;;159.70;69.20;;;;;;;14.88;53.25;100961.72;4935754;57;1145017;-73
2021/03/31 21:58:18;;;;;;;154.45;66.85;;;;;;;14.74;53.43;100962.45;4929680;58;1145188;-74
2021/03/31 22:03:24;;;;;;;132.70;54.77;;;;;;;14.66;54.01;100956.98;4924465;58;1145081;-73
2021/03/31 22:08:33;;;;;;;90.20;40.43;;;;;;;14.53;54.18;100952.34;4925007;57;1144901;-74
2021/03/31 22:13:40;;;;;;;86.57;36.97;;;;;;;14.39;54.31;100948.67;4925087;58;1142631;-76
2021/03/31 22:18:46;;;;;;;112.70;47.00;;;;;;;14.33;54.55;100952.73;4924944;58;1142483;-74
2021/03/31 22:23:51;;;;;;;124.40;50.23;;;;;;;14.25;54.48;100939.23;4924798;58;1145080;-76
2021/03/31 22:28:57;;;;;;;87.10;33.23;;;;;;;14.15;54.72;100941.01;4924804;58;1144579;-73
2021/03/31 22:34:04;;;;;;;83.03;33.70;;;;;;;14.01;54.92;100935.55;4925013;58;1143068;-72
2021/03/31 22:39:10;;;;;;;69.75;29.30;;;;;;;13.93;55.11;100935.34;4916393;58;1152235;-75
2021/03/31 22:44:16;;;;;;;55.05;23.05;;;;;;;13.82;55.17;100937.22;4911093;58;1142995;-72
2021/03/31 22:49:21;;;;;;;56.48;25.05;;;;;;;13.71;55.34;100929.68;4925057;58;1143289;-75
2021/03/31 22:54:27;;;;;;;44.90;20.15;;;;;;;13.64;55.51;100930.30;4925107;57;1143164;-72
2021/03/31 22:59:33;;;;;;;36.50;17.73;;;;;;;13.54;55.80;100921.42;4929310;58;1142666;-72
2021/03/31 23:04:39;;;;;;;30.67;15.60;;;;;;;13.43;55.99;100916.17;4936375;58;1142921;-75
2021/03/31 23:09:45;;;;;;;35.13;16.67;;;;;;;13.36;56.20;100903.88;4936268;58;1142667;-72
2021/03/31 23:14:51;;;;;;;43.47;17.67;;;;;;;13.26;56.32;100891.84;4936277;58;1142914;-73
2021/03/31 23:19:59;;;;;;;32.80;14.13;;;;;;;13.18;56.44;100889.45;4936231;58;1142506;-76
2021/03/31 23:25:06;;;;;;;33.60;14.07;;;;;;;13.11;56.71;100893.56;4936513;58;1142608;-73
2021/03/31 23:30:16;;;;;;;34.43;15.87;;;;;;;13.02;56.54;100892.00;4917128;58;1142715;-73